Time;durP1;ratioP1;P1;durP2;ratioP2;P2;SDS_P1;SDS_P2;PMS_P1;PMS_P2;Temp;Humidity;BMP_temperature;BMP_pressure;BME280_temperature;BME280_humidity;BME280_pressure;Samples;Min_cycle;Max_cycle;Signal;HPM_P1;HPM_P2
2024/01/13 00:00:51;;;;;;;31.73;12.83;;;;;;;;;;5036383;28;20532;-86
2024/01/13 00:03:55;;;;;;;30.87;13.37;;;;;;;;;;5036026;28;20550;-87
2024/01/13 00:06:59;;;;;;;31.70;13.30;;;;;;;;;;5047801;28;20606;-86
2024/01/13 00:10:03;;;;;;;32.73;12.67;;;;;;;;;;5035908;28;20546;-87
2024/01/13 00:13:08;;;;;;;33.30;13.37;;;;;;;;;;5035724;28;20551;-86
2024/01/13 00:16:12;;;;;;;33.93;13.93;;;;;;;;;;5035568;28;20546;-87
2024/01/13 00:19:16;;;;;;;38.40;14.10;;;;;;;;;;5036049;28;20594;-87
2024/01/13 00:22:20;;;;;;;32.17;13.67;;;;;;;;;;5035484;28;20554;-87
2024/01/13 00:25:24;;;;;;;32.67;12.87;;;;;;;;;;5035809;28;20617;-86
2024/01/13 00:28:29;;;;;;;34.53;13.27;;;;;;;;;;5035177;28;20552;-86
2024/01/13 00:31:33;;;;;;;31.03;12.77;;;;;;;;;;5046775;28;20548;-87
2024/01/13 00:34:37;;;;;;;30.40;12.53;;;;;;;;;;5035114;28;20661;-87
2024/01/13 00:37:41;;;;;;;30.63;11.93;;;;;;;;;;5034885;28;20551;-87
2024/01/13 00:40:46;;;;;;;29.50;12.57;;;;;;;;;;5034856;28;20554;-86
2024/01/13 00:43:50;;;;;;;29.93;12.13;;;;;;;;;;5035365;28;20551;-86
2024/01/13 00:46:54;;;;;;;30.83;12.30;;;;;;;;;;5035331;28;20546;-87
2024/01/13 00:49:58;;;;;;;31.53;13.00;;;;;;;;;;5046686;28;20544;-87
2024/01/13 00:53:02;;;;;;;31.67;12.83;;;;;;;;;;5034834;28;20546;-86
2024/01/13 00:56:07;;;;;;;30.17;12.70;;;;;;;;;;5034582;28;20550;-87
2024/01/13 00:59:11;;;;;;;32.90;14.27;;;;;;;;;;5035142;28;20955;-87
2024/01/13 01:02:15;;;;;;;31.77;12.93;;;;;;;;;;5034968;28;20570;-87
2024/01/13 01:05:19;;;;;;;27.80;11.73;;;;;;;;;;5033905;28;21209;-87
2024/01/13 01:08:24;;;;;;;30.20;12.33;;;;;;;;;;5034651;28;20535;-86
2024/01/13 01:11:28;;;;;;;27.87;11.33;;;;;;;;;;5033702;28;20563;-87
2024/01/13 01:14:32;;;;;;;28.43;12.13;;;;;;;;;;5034535;28;20625;-87
2024/01/13 01:17:36;;;;;;;34.07;12.53;;;;;;;;;;5034406;28;20562;-86
2024/01/13 01:20:41;;;;;;;28.73;12.43;;;;;;;;;;5034687;28;20546;-87
2024/01/13 01:23:45;;;;;;;31.67;11.90;;;;;;;;;;5034150;28;20558;-87
2024/01/13 01:26:50;;;;;;;31.73;12.23;;;;;;;;;;5033450;28;20547;-86
2024/01/13 01:29:54;;;;;;;27.50;11.07;;;;;;;;;;5033812;28;20552;-87
2024/01/13 01:32:58;;;;;;;24.27;10.23;;;;;;;;;;5033756;28;20550;-87
2024/01/13 01:36:02;;;;;;;23.33;9.57;;;;;;;;;;5033206;28;20660;-87
2024/01/13 01:39:09;;;;;;;26.50;10.17;;;;;;;;;;5033577;28;20595;-87
2024/01/13 01:42:13;;;;;;;28.90;12.10;;;;;;;;;;5033768;28;20562;-87
2024/01/13 01:45:17;;;;;;;24.83;11.23;;;;;;;;;;5033381;28;20644;-86
2024/01/13 01:48:32;;;;;;;23.73;10.17;;;;;;;;;;5033633;28;20565;-86
2024/01/13 01:51:37;;;;;;;25.63;10.43;;;;;;;;;;5034178;28;20539;-87
2024/01/13 01:54:42;;;;;;;27.20;11.27;;;;;;;;;;5033028;28;20995;-86
2024/01/13 01:57:47;;;;;;;24.00;10.47;;;;;;;;;;5033510;28;20546;-88
2024/01/13 02:00:51;;;;;;;31.20;11.50;;;;;;;;;;5033071;28;20598;-87
2024/01/13 02:03:57;;;;;;;30.30;12.10;;;;;;;;;;5033066;28;20556;-87
2024/01/13 02:07:02;;;;;;;29.97;12.77;;;;;;;;;;5033229;28;20535;-87
2024/01/13 02:10:07;;;;;;;30.77;11.63;;;;;;;;;;5033006;28;20546;-87
2024/01/13 02:13:11;;;;;;;33.80;13.03;;;;;;;;;;5033052;28;21102;-87
2024/01/13 02:16:16;;;;;;;31.47;11.83;;;;;;;;;;5035129;28;21115;-87
2024/01/13 02:19:20;;;;;;;33.20;13.97;;;;;;;;;;5039092;28;20599;-87
2024/01/13 02:22:25;;;;;;;31.00;13.13;;;;;;;;;;5033348;28;21114;-87
2024/01/13 02:25:29;;;;;;;30.83;14.27;;;;;;;;;;5032789;28;20614;-87
2024/01/13 02:28:34;;;;;;;31.70;13.23;;;;;;;;;;5032413;28;20552;-87
2024/01/13 02:31:38;;;;;;;34.07;13.40;;;;;;;;;;5032875;28;20538;-87
2024/01/13 02:34:42;;;;;;;32.13;14.03;;;;;;;;;;5032673;28;20660;-87
2024/01/13 02:37:46;;;;;;;36.57;14.43;;;;;;;;;;5032690;28;20542;-87
2024/01/13 02:40:50;;;;;;;39.17;13.93;;;;;;;;;;5032365;28;20633;-87
2024/01/13 02:43:54;;;;;;;35.93;14.77;;;;;;;;;;5032717;28;20560;-87
2024/01/13 02:46:59;;;;;;;34.77;13.90;;;;;;;;;;5032477;28;20551;-87
2024/01/13 02:50:03;;;;;;;38.33;15.13;;;;;;;;;;5032403;28;20562;-87
2024/01/13 02:53:07;;;;;;;39.77;14.57;;;;;;;;;;5032903;28;20546;-86
2024/01/13 02:56:12;;;;;;;32.33;14.57;;;;;;;;;;5032161;28;20566;-87
2024/01/13 02:59:16;;;;;;;39.30;14.97;;;;;;;;;;5032421;28;20600;-87
2024/01/13 03:02:20;;;;;;;38.37;15.30;;;;;;;;;;5031989;28;20560;-87
2024/01/13 03:05:24;;;;;;;44.87;15.20;;;;;;;;;;5031968;28;20625;-87
2024/01/13 03:08:29;;;;;;;39.33;14.53;;;;;;;;;;5032035;28;20551;-87
2024/01/13 03:11:33;;;;;;;40.47;14.80;;;;;;;;;;5043669;28;20554;-86
2024/01/13 03:14:38;;;;;;;41.53;16.20;;;;;;;;;;5032124;28;21023;-87
2024/01/13 03:17:42;;;;;;;41.60;16.07;;;;;;;;;;5033743;28;20544;-87
2024/01/13 03:20:46;;;;;;;42.17;17.13;;;;;;;;;;5035706;28;20613;-86
2024/01/13 03:23:50;;;;;;;41.43;16.63;;;;;;;;;;5035795;28;20923;-87
2024/01/13 03:26:54;;;;;;;47.40;16.27;;;;;;;;;;5036107;28;21126;-87
2024/01/13 03:29:58;;;;;;;45.23;16.43;;;;;;;;;;5047000;28;20567;-87
2024/01/13 03:33:02;;;;;;;44.23;16.87;;;;;;;;;;5035369;28;20547;-87
2024/01/13 03:36:08;;;;;;;50.07;17.57;;;;;;;;;;5034968;28;20645;-87
2024/01/13 03:39:12;;;;;;;46.57;18.07;;;;;;;;;;5035192;28;21117;-86
2024/01/13 03:42:16;;;;;;;47.53;17.13;;;;;;;;;;5035989;28;20547;-87
2024/01/13 03:45:20;;;;;;;46.43;17.03;;;;;;;;;;5035359;28;20625;-87
2024/01/13 03:48:24;;;;;;;48.07;16.63;;;;;;;;;;5035369;28;20544;-87
2024/01/13 03:51:29;;;;;;;44.73;17.53;;;;;;;;;;5046781;28;20894;-86
2024/01/13 03:54:33;;;;;;;46.53;17.73;;;;;;;;;;5035090;28;21212;-87
2024/01/13 03:57:37;;;;;;;45.60;16.77;;;;;;;;;;5035545;28;20542;-87
2024/01/13 04:00:42;;;;;;;49.17;19.07;;;;;;;;;;5034853;28;20603;-87
2024/01/13 04:03:46;;;;;;;50.17;17.37;;;;;;;;;;5034999;28;20552;-87
2024/01/13 04:06:50;;;;;;;48.83;18.70;;;;;;;;;;5035121;28;20546;-87
2024/01/13 04:09:55;;;;;;;66.53;20.63;;;;;;;;;;5034527;28;20558;-86
2024/01/13 04:13:00;;;;;;;57.43;19.13;;;;;;;;;;5045663;28;20550;-87
2024/01/13 04:16:05;;;;;;;50.03;18.00;;;;;;;;;;5034282;28;20623;-86
2024/01/13 04:19:10;;;;;;;49.57;18.53;;;;;;;;;;5057075;28;20554;-87
2024/01/13 04:22:45;;;;;;;49.73;18.80;;;;;;;;;;5057004;28;20531;-87
2024/01/13 04:25:50;;;;;;;53.17;18.23;;;;;;;;;;5045558;28;20635;-87
2024/01/13 04:28:54;;;;;;;50.97;18.73;;;;;;;;;;5033913;28;20539;-87
2024/01/13 04:31:58;;;;;;;51.87;19.63;;;;;;;;;;5034329;28;20552;-86
2024/01/13 04:35:03;;;;;;;55.27;18.77;;;;;;;;;;5044748;28;20676;-87
2024/01/13 04:38:07;;;;;;;49.93;19.40;;;;;;;;;;5045729;28;20552;-87
2024/01/13 04:41:11;;;;;;;51.37;18.07;;;;;;;;;;5044758;28;20614;-87
2024/01/13 04:44:15;;;;;;;50.27;18.80;;;;;;;;;;5033424;28;20626;-86
2024/01/13 04:47:19;;;;;;;52.83;20.57;;;;;;;;;;5033929;28;20543;-87
2024/01/13 04:50:23;;;;;;;58.90;20.40;;;;;;;;;;5033782;28;20564;-86
2024/01/13 04:53:28;;;;;;;58.47;21.00;;;;;;;;;;5033560;28;20552;-86
2024/01/13 04:56:32;;;;;;;54.37;19.77;;;;;;;;;;5033829;28;20549;-86
2024/01/13 04:59:36;;;;;;;47.73;18.57;;;;;;;;;;5045127;28;20550;-86
2024/01/13 05:02:40;;;;;;;56.43;18.97;;;;;;;;;;5033479;28;21136;-86
2024/01/13 05:05:44;;;;;;;53.90;19.33;;;;;;;;;;5033296;28;20977;-87
2024/01/13 05:08:48;;;;;;;53.87;19.13;;;;;;;;;;5033498;28;20543;-87
2024/01/13 05:11:52;;;;;;;45.90;17.60;;;;;;;;;;5055941;28;20542;-87
2024/01/13 05:14:57;;;;;;;53.73;20.37;;;;;;;;;;5033049;28;20648;-87
2024/01/13 05:18:01;;;;;;;49.43;19.03;;;;;;;;;;5044329;28;21213;-87
2024/01/13 05:21:05;;;;;;;54.83;19.27;;;;;;;;;;5044204;28;20595;-86
2024/01/13 05:24:10;;;;;;;54.07;19.07;;;;;;;;;;5032797;28;20637;-87
2024/01/13 05:27:20;;;;;;;52.90;18.87;;;;;;;;;;5055612;28;20550;-87
2024/01/13 05:30:26;;;;;;;52.27;19.03;;;;;;;;;;5032520;28;20562;-87
2024/01/13 05:33:31;;;;;;;67.20;20.17;;;;;;;;;;5044131;28;20555;-87
2024/01/13 05:36:35;;;;;;;59.20;20.27;;;;;;;;;;5058571;28;21074;-87
2024/01/13 05:39:39;;;;;;;51.10;19.10;;;;;;;;;;5033591;28;21130;-87
2024/01/13 05:42:48;;;;;;;54.53;20.07;;;;;;;;;;5032961;28;20571;-87
2024/01/13 05:46:35;;;;;;;56.43;19.90;;;;;;;;;;5044419;28;20979;-87
2024/01/13 05:49:39;;;;;;;54.27;19.77;;;;;;;;;;5032663;28;20546;-87
2024/01/13 05:52:43;;;;;;;57.57;20.33;;;;;;;;;;5032401;28;20550;-86
2024/01/13 05:55:47;;;;;;;63.00;21.47;;;;;;;;;;5031900;28;20622;-87
2024/01/13 05:58:52;;;;;;;51.47;19.70;;;;;;;;;;5054816;28;20542;-87
2024/01/13 06:01:56;;;;;;;60.53;20.73;;;;;;;;;;5043713;28;20606;-87
2024/01/13 06:05:00;;;;;;;58.83;20.53;;;;;;;;;;5055674;28;20638;-87
2024/01/13 06:08:06;;;;;;;59.37;21.53;;;;;;;;;;5044140;28;20547;-87
2024/01/13 06:11:10;;;;;;;47.97;19.73;;;;;;;;;;5032298;28;20559;-87
2024/01/13 06:14:14;;;;;;;54.03;21.13;;;;;;;;;;5043576;28;20627;-87
2024/01/13 06:17:18;;;;;;;60.77;21.23;;;;;;;;;;5031715;28;20585;-87
2024/01/13 06:20:22;;;;;;;54.73;20.07;;;;;;;;;;5031930;28;20598;-86
2024/01/13 06:23:27;;;;;;;55.53;20.20;;;;;;;;;;5043135;28;20554;-87
2024/01/13 06:26:30;;;;;;;56.60;19.83;;;;;;;;;;5053970;28;20565;-87
2024/01/13 06:29:35;;;;;;;51.20;19.97;;;;;;;;;;5043077;28;20546;-86
2024/01/13 06:32:40;;;;;;;51.77;20.17;;;;;;;;;;5042522;28;20547;-87
2024/01/13 06:35:44;;;;;;;59.60;21.37;;;;;;;;;;5031136;28;20649;-86
2024/01/13 06:38:48;;;;;;;58.17;20.63;;;;;;;;;;5031206;28;21101;-86
2024/01/13 06:41:52;;;;;;;57.83;21.37;;;;;;;;;;5042976;28;20603;-86
2024/01/13 06:45:04;;;;;;;54.63;20.13;;;;;;;;;;5054064;28;20634;-89
2024/01/13 06:48:08;;;;;;;59.37;20.77;;;;;;;;;;5004533;28;20651;-82
2024/01/13 06:51:19;;;;;;;62.07;21.90;;;;;;;;;;5016320;28;20571;-84
2024/01/13 06:54:23;;;;;;;59.33;21.70;;;;;;;;;;5019525;28;20620;-84
2024/01/13 06:57:27;;;;;;;52.43;21.00;;;;;;;;;;5020090;28;20551;-84
2024/01/13 07:00:32;;;;;;;53.10;21.23;;;;;;;;;;5008360;28;20601;-84
2024/01/13 07:03:36;;;;;;;54.93;21.27;;;;;;;;;;5019687;28;20559;-84
2024/01/13 07:06:40;;;;;;;53.17;20.87;;;;;;;;;;5019570;28;20540;-84
2024/01/13 07:09:44;;;;;;;59.27;22.23;;;;;;;;;;5007730;28;21137;-88
2024/01/13 07:13:27;;;;;;;58.00;22.83;;;;;;;;;;4996856;28;20565;-88
2024/01/13 07:17:09;;;;;;;68.00;23.27;;;;;;;;;;5018894;28;20541;-89
2024/01/13 07:20:14;;;;;;;74.63;28.33;;;;;;;;;;5020325;28;21136;-87
2024/01/13 07:23:18;;;;;;;67.67;26.07;;;;;;;;;;5007091;28;21165;-87
2024/01/13 07:26:22;;;;;;;59.33;25.20;;;;;;;;;;5006921;28;20564;-88
2024/01/13 07:29:26;;;;;;;54.40;23.93;;;;;;;;;;4995548;28;20568;-87
2024/01/13 07:32:31;;;;;;;58.23;23.50;;;;;;;;;;5006806;28;20564;-88
2024/01/13 07:35:35;;;;;;;49.47;20.40;;;;;;;;;;5017623;28;20654;-87
2024/01/13 07:38:40;;;;;;;57.43;22.33;;;;;;;;;;4995949;28;21155;-87
2024/01/13 07:41:44;;;;;;;56.40;19.70;;;;;;;;;;5006389;28;21181;-87
2024/01/13 07:44:48;;;;;;;47.33;17.97;;;;;;;;;;5006810;28;20631;-85
2024/01/13 07:47:53;;;;;;;49.40;18.93;;;;;;;;;;5017707;28;20564;-88
2024/01/13 07:51:40;;;;;;;47.67;18.50;;;;;;;;;;4996871;28;20560;-88
2024/01/13 07:55:53;;;;;;;50.73;19.13;;;;;;;;;;4992466;28;20651;-88
2024/01/13 07:59:08;;;;;;;63.50;24.43;;;;;;;;;;5018038;28;20561;-87
2024/01/13 08:02:14;;;;;;;55.33;20.53;;;;;;;;;;5006508;28;20611;-86
2024/01/13 08:05:18;;;;;;;52.80;19.83;;;;;;;;;;4995379;28;20635;-87
2024/01/13 08:08:22;;;;;;;66.90;21.80;;;;;;;;;;5017817;28;20549;-87
2024/01/13 08:11:26;;;;;;;52.97;19.20;;;;;;;;;;5017546;28;20918;-86
2024/01/13 08:14:30;;;;;;;54.43;20.63;;;;;;;;;;5006547;28;20622;-87
2024/01/13 08:17:35;;;;;;;49.97;20.70;;;;;;;;;;5006511;28;20564;-87
2024/01/13 08:20:39;;;;;;;62.20;20.63;;;;;;;;;;5006201;28;20543;-87
2024/01/13 08:23:43;;;;;;;54.47;21.70;;;;;;;;;;5006835;28;20577;-87
2024/01/13 08:26:47;;;;;;;76.03;32.20;;;;;;;;;;5005979;28;20544;-87
2024/01/13 08:29:51;;;;;;;62.03;22.73;;;;;;;;;;5005932;28;20548;-87
2024/01/13 08:32:55;;;;;;;72.27;28.27;;;;;;;;;;5016971;28;20541;-87
2024/01/13 08:35:59;;;;;;;65.53;25.63;;;;;;;;;;4994198;28;20658;-87
2024/01/13 08:39:03;;;;;;;61.43;22.40;;;;;;;;;;5017152;28;20553;-87
2024/01/13 08:42:07;;;;;;;56.50;20.73;;;;;;;;;;5006192;28;20615;-87
2024/01/13 08:45:11;;;;;;;54.77;21.33;;;;;;;;;;5005867;28;20639;-87
2024/01/13 08:48:16;;;;;;;54.00;20.70;;;;;;;;;;4995068;28;20544;-87
2024/01/13 08:51:19;;;;;;;50.60;21.43;;;;;;;;;;5006364;28;20894;-87
2024/01/13 08:54:23;;;;;;;92.07;38.70;;;;;;;;;;4994736;28;20627;-87
2024/01/13 08:57:27;;;;;;;74.60;29.40;;;;;;;;;;5008102;28;21106;-87
2024/01/13 09:00:32;;;;;;;55.63;20.63;;;;;;;;;;4996681;28;20552;-87
2024/01/13 09:03:36;;;;;;;53.27;19.30;;;;;;;;;;5006214;28;20549;-87
2024/01/13 10:35:03;;;;;;;55.53;20.57;;;;;;;;;;4883179;29;20630;-91
2024/01/13 10:38:10;;;;;;;53.50;20.87;;;;;;;;;;4839340;29;20615;-91
2024/01/13 10:41:15;;;;;;;53.93;22.60;;;;;;;;;;4858965;29;20590;-91
2024/01/13 10:44:21;;;;;;;54.77;21.80;;;;;;;;;;4858842;29;20635;-90
2024/01/13 10:47:30;;;;;;;55.07;21.67;;;;;;;;;;4859065;29;20560;-91
2024/01/13 10:50:37;;;;;;;55.87;23.00;;;;;;;;;;4858838;29;20558;-91
2024/01/13 10:53:45;;;;;;;54.47;22.30;;;;;;;;;;4858871;29;20552;-90
2024/01/13 10:56:50;;;;;;;55.37;22.93;;;;;;;;;;4869674;29;20556;-91
2024/01/13 11:00:06;;;;;;;58.63;22.93;;;;;;;;;;4859260;29;20571;-91
2024/01/13 11:03:42;;;;;;;55.10;22.53;;;;;;;;;;4858542;29;20608;-90
2024/01/13 11:06:47;;;;;;;57.97;24.87;;;;;;;;;;4858716;29;20555;-90
2024/01/13 11:10:06;;;;;;;63.67;27.13;;;;;;;;;;4869918;29;20631;-90
2024/01/13 11:14:06;;;;;;;59.93;25.10;;;;;;;;;;4858983;29;20562;-90
2024/01/13 11:17:18;;;;;;;64.40;24.87;;;;;;;;;;4869315;29;21119;-90
2024/01/13 11:20:43;;;;;;;67.23;30.53;;;;;;;;;;4869574;29;20567;-91
2024/01/13 11:24:01;;;;;;;95.87;40.50;;;;;;;;;;4858736;29;20548;-89
2024/01/13 11:27:09;;;;;;;105.17;44.80;;;;;;;;;;4869111;29;20559;-90
2024/01/13 11:31:20;;;;;;;69.87;29.90;;;;;;;;;;4869148;29;20554;-89
2024/01/13 11:35:08;;;;;;;;;;;;;;;;;;;;;
2024/01/13 11:39:33;;;;;;;63.47;24.70;;;;;;;;;;4882649;29;20625;-90
2024/01/13 11:44:33;;;;;;;63.57;23.87;;;;;;;;;;4841892;29;20685;-89
2024/01/13 11:48:50;;;;;;;57.77;23.90;;;;;;;;;;4883531;29;20551;-89
2024/01/13 11:52:44;;;;;;;62.47;24.87;;;;;;;;;;4864546;29;20629;-89
2024/01/13 11:55:49;;;;;;;60.23;23.17;;;;;;;;;;4861470;29;20635;-89
2024/01/13 11:59:17;;;;;;;62.43;24.17;;;;;;;;;;4872872;29;21004;-90
2024/01/13 12:02:22;;;;;;;64.83;24.97;;;;;;;;;;4852001;29;20598;-89
2024/01/13 12:05:28;;;;;;;63.57;24.70;;;;;;;;;;4882201;29;20641;-89
2024/01/13 12:08:32;;;;;;;69.87;25.83;;;;;;;;;;4864856;29;20558;-88
2024/01/13 12:11:53;;;;;;;63.47;23.67;;;;;;;;;;4864292;29;20551;-88
2024/01/13 12:15:19;;;;;;;63.07;24.03;;;;;;;;;;4874023;29;20657;-89
2024/01/13 12:18:26;;;;;;;77.83;27.03;;;;;;;;;;4874069;29;20554;-89
2024/01/13 12:21:35;;;;;;;76.77;28.20;;;;;;;;;;4867452;29;20549;-89
2024/01/13 12:24:42;;;;;;;65.57;26.37;;;;;;;;;;4863782;29;20642;-89
2024/01/13 12:27:53;;;;;;;67.77;25.77;;;;;;;;;;4871375;29;20909;-89
2024/01/13 12:31:03;;;;;;;76.23;28.23;;;;;;;;;;4861537;29;20545;-90
2024/01/13 12:34:12;;;;;;;202.87;71.27;;;;;;;;;;4861018;29;20630;-89
2024/01/13 12:37:18;;;;;;;94.37;37.60;;;;;;;;;;4871596;29;21115;-89
2024/01/13 12:40:30;;;;;;;142.33;53.57;;;;;;;;;;4860781;29;20554;-90
2024/01/13 12:43:34;;;;;;;89.37;33.50;;;;;;;;;;4871586;29;20602;-89
2024/01/13 12:46:39;;;;;;;83.87;30.57;;;;;;;;;;4861418;29;20554;-81
2024/01/13 12:49:43;;;;;;;78.80;29.30;;;;;;;;;;4871059;29;20933;-87
2024/01/13 12:52:49;;;;;;;62.73;25.27;;;;;;;;;;4860777;29;21097;-87
2024/01/13 12:55:54;;;;;;;85.53;32.37;;;;;;;;;;4871084;29;20667;-87
2024/01/13 12:58:59;;;;;;;69.87;28.17;;;;;;;;;;4870420;29;20630;-87
2024/01/13 13:02:07;;;;;;;53.57;22.80;;;;;;;;;;4872013;29;20627;-87
2024/01/13 13:05:11;;;;;;;59.40;25.63;;;;;;;;;;4862523;29;20627;-87
2024/01/13 13:08:17;;;;;;;55.77;23.53;;;;;;;;;;4872315;29;20943;-87
2024/01/13 13:11:21;;;;;;;62.83;23.50;;;;;;;;;;4860714;29;20572;-87
2024/01/13 13:14:26;;;;;;;64.07;25.20;;;;;;;;;;4871284;29;20633;-87
2024/01/13 13:17:30;;;;;;;74.17;27.67;;;;;;;;;;4860216;29;20570;-87
2024/01/13 13:20:36;;;;;;;67.20;26.10;;;;;;;;;;4870904;29;20910;-87
2024/01/13 13:23:40;;;;;;;62.10;25.13;;;;;;;;;;4870782;29;20615;-87
2024/01/13 13:26:45;;;;;;;56.47;23.37;;;;;;;;;;4881714;29;20562;-87
2024/01/13 13:29:49;;;;;;;46.37;20.47;;;;;;;;;;4860285;29;20550;-87
2024/01/13 13:32:54;;;;;;;46.60;19.80;;;;;;;;;;4850058;29;20546;-87
2024/01/13 13:35:58;;;;;;;46.27;21.07;;;;;;;;;;4869911;29;20634;-87
2024/01/13 13:39:05;;;;;;;53.37;23.50;;;;;;;;;;4870456;29;20574;-87
2024/01/13 13:42:09;;;;;;;44.67;19.53;;;;;;;;;;4859768;29;20548;-87
2024/01/13 13:45:13;;;;;;;47.90;19.77;;;;;;;;;;4870304;29;20641;-87
2024/01/13 13:48:18;;;;;;;54.20;22.60;;;;;;;;;;4859571;29;20554;-87
2024/01/13 13:51:25;;;;;;;58.97;23.17;;;;;;;;;;4870361;29;20547;-90
2024/01/13 16:23:16;;;;;;;42.80;21.13;;;;;;;;;;4887046;29;20609;-87
2024/01/13 16:26:24;;;;;;;35.93;16.17;;;;;;;;;;4867869;29;20601;-89
2024/01/13 16:29:29;;;;;;;41.70;16.40;;;;;;;;;;4873632;29;20629;-88
2024/01/13 16:32:35;;;;;;;36.07;16.40;;;;;;;;;;4862398;29;20555;-89
2024/01/13 16:35:39;;;;;;;34.73;17.23;;;;;;;;;;4872630;29;20633;-89
2024/01/13 16:38:42;;;;;;;40.97;17.07;;;;;;;;;;4873228;29;20558;-88
2024/01/13 16:41:47;;;;;;;31.07;13.63;;;;;;;;;;4862306;29;20563;-88
2024/01/13 16:44:51;;;;;;;39.60;16.60;;;;;;;;;;4872193;29;21221;-88
2024/01/13 16:47:55;;;;;;;41.07;17.27;;;;;;;;;;4872379;29;21178;-88
2024/01/13 16:50:59;;;;;;;37.10;16.87;;;;;;;;;;4872864;29;20555;-88
2024/01/13 16:54:04;;;;;;;36.53;15.83;;;;;;;;;;4863482;29;20554;-88
2024/01/13 16:57:08;;;;;;;42.80;17.13;;;;;;;;;;4862489;29;20909;-88
2024/01/13 17:00:13;;;;;;;39.30;16.30;;;;;;;;;;4872358;29;20554;-88
2024/01/13 17:03:17;;;;;;;37.00;15.70;;;;;;;;;;4861961;29;20661;-88
2024/01/13 17:06:22;;;;;;;42.97;17.70;;;;;;;;;;4874198;29;20562;-88
2024/01/13 17:09:28;;;;;;;44.03;18.67;;;;;;;;;;4875839;29;20559;-90
2024/01/13 17:12:32;;;;;;;41.83;17.30;;;;;;;;;;4872277;29;20551;-84
2024/01/13 17:15:36;;;;;;;44.07;17.50;;;;;;;;;;4861209;29;20625;-84
2024/01/13 17:18:46;;;;;;;40.37;16.47;;;;;;;;;;4862496;29;20550;-88
2024/01/13 17:21:52;;;;;;;41.63;17.23;;;;;;;;;;4860799;29;20905;-88
2024/01/13 20:23:06;;;;;;;26.63;14.90;;;;;;;;;;4909317;29;20607;-88
2024/01/13 20:57:05;;;;;;;24.07;13.13;;;;;;;;;;4856837;29;20977;-88
2024/01/13 21:01:16;;;;;;;29.47;15.63;;;;;;;;;;4865539;29;20555;-88
2024/01/13 21:18:13;;;;;;;37.37;18.97;;;;;;;;;;4848515;29;20639;-88
2024/01/13 21:22:55;;;;;;;38.57;18.30;;;;;;;;;;4841423;29;20627;-88
2024/01/13 21:27:55;;;;;;;;;;;;;;;;;;;;;
2024/01/13 21:31:59;;;;;;;29.63;15.07;;;;;;;;;;4781656;30;20638;-88
2024/01/13 21:36:56;;;;;;;;;;;;;;;;;;;;;
2024/01/13 21:49:22;;;;;;;33.10;15.53;;;;;;;;;;4879283;29;21144;-88
2024/01/13 21:53:40;;;;;;;37.40;18.50;;;;;;;;;;4868826;29;20554;-88
2024/01/13 21:56:44;;;;;;;36.20;17.47;;;;;;;;;;4862788;29;20538;-86
2024/01/13 21:59:52;;;;;;;37.10;17.57;;;;;;;;;;4863537;29;20564;-86
2024/01/13 22:02:56;;;;;;;32.57;17.17;;;;;;;;;;4863571;29;20573;-86
2024/01/13 22:06:02;;;;;;;31.90;16.10;;;;;;;;;;4862129;29;20662;-86
2024/01/13 22:09:11;;;;;;;31.70;16.47;;;;;;;;;;4861207;29;21111;-89
2024/01/13 22:12:16;;;;;;;29.90;16.50;;;;;;;;;;4861120;29;20555;-90
2024/01/13 22:15:20;;;;;;;33.47;16.13;;;;;;;;;;4851405;29;20666;-90
2024/01/13 22:18:25;;;;;;;32.10;15.97;;;;;;;;;;4872684;29;20570;-90
2024/01/13 22:21:30;;;;;;;31.53;15.83;;;;;;;;;;4860380;29;20555;-89
2024/01/13 22:24:35;;;;;;;29.13;15.03;;;;;;;;;;4849472;29;20642;-90
2024/01/13 22:27:41;;;;;;;30.90;16.03;;;;;;;;;;4856984;29;20551;-89
2024/01/13 22:30:45;;;;;;;34.53;16.07;;;;;;;;;;4876508;29;20628;-89
2024/01/13 22:33:50;;;;;;;30.23;14.77;;;;;;;;;;4859888;29;20576;-89
2024/01/13 22:36:54;;;;;;;26.60;14.50;;;;;;;;;;4871030;29;20570;-89
2024/01/13 22:39:58;;;;;;;28.90;15.00;;;;;;;;;;4870784;29;20921;-89
2024/01/13 22:43:02;;;;;;;30.43;15.60;;;;;;;;;;4850325;29;20559;-89
2024/01/13 22:46:09;;;;;;;31.97;16.17;;;;;;;;;;4859707;29;20658;-90
2024/01/13 22:49:14;;;;;;;31.47;15.60;;;;;;;;;;4848806;29;20575;-90
2024/01/13 22:52:21;;;;;;;30.77;15.87;;;;;;;;;;4837998;29;20567;-89
2024/01/13 22:55:25;;;;;;;32.83;16.03;;;;;;;;;;4848012;29;20639;-90
2024/01/13 22:58:30;;;;;;;27.23;14.57;;;;;;;;;;4869510;29;20547;-89
2024/01/13 23:01:34;;;;;;;25.60;13.40;;;;;;;;;;4868700;29;20972;-90
2024/01/13 23:04:40;;;;;;;34.37;16.33;;;;;;;;;;4848030;29;20638;-89
2024/01/13 23:07:45;;;;;;;29.67;16.47;;;;;;;;;;4847299;29;20560;-89
2024/01/13 23:10:49;;;;;;;33.87;15.47;;;;;;;;;;4857305;29;20575;-89
2024/01/13 23:13:54;;;;;;;30.40;14.60;;;;;;;;;;4846470;29;20551;-89
2024/01/13 23:16:59;;;;;;;30.53;14.83;;;;;;;;;;4867471;29;20551;-89
2024/01/13 23:20:04;;;;;;;30.07;14.63;;;;;;;;;;4867313;29;20575;-91
2024/01/13 23:23:10;;;;;;;28.13;14.30;;;;;;;;;;4846370;29;20570;-90
2024/01/13 23:26:15;;;;;;;32.53;15.33;;;;;;;;;;4846221;29;20986;-89
2024/01/13 23:29:20;;;;;;;28.03;14.40;;;;;;;;;;4846533;29;20909;-90
2024/01/13 23:32:24;;;;;;;33.07;14.67;;;;;;;;;;4857477;29;20559;-90
2024/01/13 23:35:30;;;;;;;30.07;14.87;;;;;;;;;;4869727;29;20634;-90
2024/01/13 23:38:35;;;;;;;32.83;14.63;;;;;;;;;;4849605;29;20555;-90
2024/01/13 23:41:40;;;;;;;29.80;15.00;;;;;;;;;;4849376;29;20551;-90
2024/01/13 23:44:44;;;;;;;31.10;15.47;;;;;;;;;;4859512;29;20638;-90
2024/01/13 23:47:48;;;;;;;35.83;15.97;;;;;;;;;;4870374;29;20581;-89
2024/01/13 23:50:53;;;;;;;36.10;15.37;;;;;;;;;;4858983;29;20914;-90
2024/01/13 23:53:57;;;;;;;29.00;15.97;;;;;;;;;;4859376;29;20555;-89
2024/01/13 23:57:02;;;;;;;32.30;15.63;;;;;;;;;;4858783;29;20548;-89
